Time;durP1;ratioP1;P1;durP2;ratioP2;P2;SDS_P1;SDS_P2;PMS_P1;PMS_P2;Temp;Humidity;BMP_temperature;BMP_pressure;BME280_temperature;BME280_humidity;BME280_pressure;Samples;Min_cycle;Max_cycle;Signal;HPM_P1;HPM_P2
2021/08/08 00:01:52;;;;;;;5.50;2.25;;;;;;;19.85;59.89;100152.16;4994836;28;114543;-72
2021/08/08 00:04:22;;;;;;;3.05;2.03;;;;;;;19.83;59.90;100155.03;5012975;28;116334;-71
2021/08/08 00:06:49;;;;;;;3.45;2.10;;;;;;;19.85;59.90;100154.84;4991985;28;123800;-72
2021/08/08 00:09:16;;;;;;;5.60;2.20;;;;;;;19.84;59.97;100151.31;5013693;28;124669;-72
2021/08/08 00:11:43;;;;;;;2.22;1.85;;;;;;;19.86;60.02;100153.03;4995886;28;114325;-73
2021/08/08 00:14:11;;;;;;;3.15;2.10;;;;;;;19.86;59.91;100151.19;4998776;28;113734;-72
2021/08/08 00:16:38;;;;;;;4.63;2.30;;;;;;;19.87;59.96;100155.53;4985263;28;123477;-71
2021/08/08 00:19:05;;;;;;;5.72;2.20;;;;;;;19.88;59.88;100156.41;4991602;28;123607;-72
2021/08/08 00:21:32;;;;;;;5.63;2.10;;;;;;;19.87;59.88;100150.16;4992619;28;114476;-72
2021/08/08 00:23:59;;;;;;;3.42;2.00;;;;;;;19.88;60.01;100146.50;5013253;28;113734;-72
2021/08/08 00:26:26;;;;;;;3.17;2.10;;;;;;;19.87;59.96;100155.53;5013279;28;123805;-72
2021/08/08 00:28:54;;;;;;;3.25;2.17;;;;;;;19.88;59.78;100162.63;4975028;28;123147;-72
2021/08/08 00:31:23;;;;;;;3.22;2.00;;;;;;;19.90;59.74;100160.63;5012993;28;114176;-72
2021/08/08 00:33:54;;;;;;;3.38;2.00;;;;;;;19.91;59.88;100156.09;5010639;28;114339;-72
2021/08/08 00:36:21;;;;;;;2.92;2.28;;;;;;;19.91;59.85;100173.09;4991464;28;123803;-71
2021/08/08 00:38:54;;;;;;;5.63;2.53;;;;;;;19.92;59.79;100163.19;4986210;28;123619;-72
2021/08/08 00:41:21;;;;;;;5.90;2.35;;;;;;;19.92;59.83;100164.03;4992401;28;115325;-72
2021/08/08 00:43:48;;;;;;;6.00;2.30;;;;;;;19.90;59.75;100168.69;4985277;28;114146;-71
2021/08/08 00:46:16;;;;;;;4.57;2.30;;;;;;;19.90;59.86;100171.41;4995451;28;123229;-71
2021/08/08 00:48:45;;;;;;;8.15;2.50;;;;;;;19.89;59.94;100180.47;4995479;28;123192;-70
2021/08/08 00:51:17;;;;;;;6.85;2.50;;;;;;;19.88;59.74;100173.38;4995682;28;113282;-71
2021/08/08 00:53:47;;;;;;;6.68;2.88;;;;;;;19.85;59.79;100179.03;4983619;28;113051;-71
2021/08/08 00:56:16;;;;;;;4.28;2.75;;;;;;;19.83;60.18;100171.16;4995491;28;123936;-71
2021/08/08 00:58:44;;;;;;;7.35;2.63;;;;;;;19.83;59.86;100175.66;4994958;28;123353;-71
2021/08/08 01:01:17;;;;;;;6.60;2.80;;;;;;;19.81;60.18;100188.38;4995323;28;113441;-71
2021/08/08 01:03:45;;;;;;;7.38;2.92;;;;;;;19.79;60.02;100185.00;5009625;28;113548;-71
2021/08/08 01:06:35;;;;;;;5.10;2.70;;;;;;;19.76;60.04;100185.28;4991462;28;123449;-71
2021/08/08 01:09:08;;;;;;;5.55;2.85;;;;;;;19.74;60.25;100192.63;4994219;28;123222;-71
2021/08/08 01:11:39;;;;;;;5.75;3.03;;;;;;;19.72;60.08;100199.97;4978527;28;114028;-71
2021/08/08 01:14:07;;;;;;;6.28;2.53;;;;;;;19.72;60.18;100199.97;4992847;28;113459;-71
2021/08/08 01:16:42;;;;;;;4.80;2.73;;;;;;;19.70;60.29;100201.94;4994247;28;123152;-71
2021/08/08 01:19:12;;;;;;;4.72;2.80;;;;;;;19.70;60.32;100201.94;4981211;28;124128;-71
2021/08/08 01:21:39;;;;;;;6.50;2.90;;;;;;;19.69;60.56;100200.28;4994915;28;113693;-71
2021/08/08 01:24:10;;;;;;;8.18;3.10;;;;;;;19.69;60.54;100201.13;4975131;28;111989;-72
2021/08/08 01:26:41;;;;;;;9.38;2.90;;;;;;;19.70;60.53;100202.78;4984303;28;122690;-71
2021/08/08 01:29:09;;;;;;;5.20;2.92;;;;;;;19.70;60.63;100207.31;4993409;28;123278;-71
2021/08/08 01:31:37;;;;;;;7.05;2.83;;;;;;;19.69;60.50;100213.72;4993785;28;114493;-72
2021/08/08 01:34:05;;;;;;;5.10;2.70;;;;;;;19.69;60.60;100213.72;4994591;28;114200;-71
2021/08/08 01:36:32;;;;;;;6.93;3.10;;;;;;;19.68;60.61;100214.69;4982838;28;123383;-71
2021/08/08 01:39:05;;;;;;;6.70;2.88;;;;;;;19.68;60.62;100217.38;4993294;28;123390;-71
2021/08/08 01:41:41;;;;;;;6.43;3.22;;;;;;;19.67;60.46;100223.75;4994103;28;113224;-72
2021/08/08 01:44:09;;;;;;;7.53;2.90;;;;;;;19.67;60.53;100218.38;4993426;28;113040;-71
2021/08/08 01:46:43;;;;;;;7.03;3.10;;;;;;;19.64;60.63;100216.81;4988234;28;123507;-71
2021/08/08 01:49:18;;;;;;;;;;;;;;;19.61;60.29;100231.38;4988336;28;123312;-71
2021/08/08 01:51:47;;;;;;;7.50;2.88;;;;;;;19.62;60.33;100222.31;4991307;28;113597;-71
2021/08/08 01:54:16;;;;;;;6.55;2.97;;;;;;;19.61;60.13;100235.91;5011552;28;114105;-71
2021/08/08 01:56:46;;;;;;;7.88;3.33;;;;;;;19.58;60.39;100242.41;4993020;28;124480;-71
2021/08/08 01:59:15;;;;;;;5.78;3.22;;;;;;;19.57;60.42;100240.72;4994678;28;122622;-71
2021/08/08 02:01:43;;;;;;;9.15;2.85;;;;;;;19.57;60.58;100246.09;4994934;28;113810;-71
2021/08/08 02:04:24;;;;;;;6.93;3.03;;;;;;;19.57;60.70;100240.72;4994351;28;113469;-71
2021/08/08 02:07:00;;;;;;;5.90;2.85;;;;;;;19.60;60.51;100251.16;4993308;28;123458;-71
2021/08/08 02:09:29;;;;;;;7.25;2.70;;;;;;;19.60;60.50;100250.31;4993777;28;123234;-71
2021/08/08 02:11:56;;;;;;;8.75;3.05;;;;;;;19.61;60.63;100254.72;4990501;28;113880;-72
2021/08/08 02:14:27;;;;;;;10.38;3.10;;;;;;;19.59;60.60;100252.16;4994065;28;112827;-71
2021/08/08 02:16:58;;;;;;;10.18;3.35;;;;;;;19.60;60.51;100251.16;4993694;28;123136;-71
2021/08/08 02:19:26;;;;;;;10.18;2.90;;;;;;;19.61;60.77;100263.63;4993751;28;122230;-72
2021/08/08 02:21:57;;;;;;;10.00;2.60;;;;;;;19.61;60.49;100263.63;4979097;28;114076;-71
2021/08/08 02:24:30;;;;;;;7.15;2.90;;;;;;;19.60;60.42;100267.28;4993973;28;114031;-72
2021/08/08 02:27:10;;;;;;;7.82;3.25;;;;;;;19.59;60.47;100270.97;4993196;28;123208;-71
2021/08/08 02:29:41;;;;;;;8.25;2.80;;;;;;;19.57;60.27;100267.59;4992853;28;122964;-71
2021/08/08 02:32:08;;;;;;;7.40;2.88;;;;;;;19.58;60.27;100274.63;5009582;28;114622;-71
2021/08/08 02:34:41;;;;;;;7.53;2.92;;;;;;;19.56;60.46;100282.00;4991400;28;113106;-72
2021/08/08 02:37:10;;;;;;;8.13;2.80;;;;;;;19.56;60.24;100276.63;4994036;28;123282;-71
2021/08/08 02:39:40;;;;;;;8.57;2.50;;;;;;;19.56;60.47;100279.31;4975383;28;123168;-72
2021/08/08 02:42:08;;;;;;;8.93;2.67;;;;;;;19.56;60.53;100284.69;4976749;28;114180;-72
2021/08/08 02:44:38;;;;;;;6.13;2.40;;;;;;;19.56;60.18;100279.31;4980464;28;115387;-72
2021/08/08 02:47:08;;;;;;;6.72;2.60;;;;;;;19.56;60.24;100282.00;4993849;28;122989;-71
2021/08/08 02:49:36;;;;;;;7.80;2.50;;;;;;;19.54;60.34;100294.72;4980194;28;122462;-71
2021/08/08 02:52:03;;;;;;;8.52;2.80;;;;;;;19.54;60.28;100305.47;4977499;28;113164;-72
2021/08/08 02:54:31;;;;;;;7.53;2.70;;;;;;;19.53;60.16;100303.75;4992672;28;113038;-72
2021/08/08 02:56:58;;;;;;;8.23;2.55;;;;;;;19.53;60.20;100309.13;5011364;28;124191;-71
2021/08/08 02:59:26;;;;;;;5.88;2.78;;;;;;;19.53;60.12;100317.19;4976850;28;123896;-71
2021/08/08 03:01:57;;;;;;;7.68;2.60;;;;;;;19.53;60.06;100319.88;4993578;28;112955;-71
2021/08/08 03:04:24;;;;;;;9.60;2.70;;;;;;;19.54;60.18;100305.47;4993074;28;113201;-72
2021/08/08 03:06:53;;;;;;;5.88;2.80;;;;;;;19.55;60.26;100312.56;4961586;28;123165;-71
2021/08/08 03:09:21;;;;;;;8.07;2.42;;;;;;;19.55;60.05;100317.91;4975074;28;123260;-71
2021/08/08 03:11:48;;;;;;;9.20;2.83;;;;;;;19.56;60.06;100330.34;4989973;28;114205;-71
2021/08/08 03:14:19;;;;;;;7.47;2.60;;;;;;;19.55;60.12;100323.28;4980127;28;114027;-72
2021/08/08 03:16:49;;;;;;;7.05;2.70;;;;;;;19.56;59.99;100330.34;4993372;28;123579;-71
2021/08/08 03:19:20;;;;;;;6.15;2.38;;;;;;;19.56;59.86;100335.72;4997548;28;124207;-71
2021/08/08 03:21:48;;;;;;;6.43;2.20;;;;;;;19.57;59.93;100345.50;4993335;28;113439;-72
2021/08/08 03:24:15;;;;;;;11.25;2.42;;;;;;;19.55;59.86;100339.41;4992347;28;113071;-72
2021/08/08 03:26:43;;;;;;;7.38;2.50;;;;;;;19.55;59.77;100344.78;4984289;28;123331;-71
2021/08/08 03:29:12;;;;;;;6.78;2.58;;;;;;;19.55;59.74;100341.22;4989419;28;123184;-72
2021/08/08 03:31:42;;;;;;;6.93;2.42;;;;;;;19.53;59.54;100341.34;4992597;28;113422;-72
2021/08/08 03:34:10;;;;;;;8.60;2.70;;;;;;;19.52;59.53;100345.06;4990402;28;113050;-71
2021/08/08 03:36:38;;;;;;;6.53;2.40;;;;;;;19.53;59.52;100346.72;4995620;28;123279;-72
2021/08/08 03:39:06;;;;;;;8.45;2.80;;;;;;;19.53;59.36;100356.63;4995441;28;122103;-72
2021/08/08 03:41:33;;;;;;;7.70;2.30;;;;;;;19.53;59.51;100362.84;4980162;28;113135;-72
2021/08/08 03:44:00;;;;;;;7.25;2.30;;;;;;;19.53;59.14;100370.91;5014258;28;114334;-71
2021/08/08 03:46:27;;;;;;;6.07;2.30;;;;;;;19.51;59.28;100364.81;4992006;28;123306;-72
2021/08/08 03:48:56;;;;;;;7.20;2.40;;;;;;;19.50;59.36;100368.53;4977954;28;123145;-72
2021/08/08 03:51:23;;;;;;;7.97;2.40;;;;;;;19.47;59.38;100374.16;4993816;28;113458;-72
2021/08/08 03:53:51;;;;;;;6.68;2.20;;;;;;;19.47;59.34;100374.16;4996521;28;112934;-72
2021/08/08 03:56:18;;;;;;;9.20;2.60;;;;;;;19.46;59.35;100372.47;4995282;28;123713;-72
2021/08/08 03:58:46;;;;;;;6.70;2.60;;;;;;;19.44;59.06;100375.28;4995337;28;123420;-72
2021/08/08 04:01:16;;;;;;;9.85;2.60;;;;;;;19.42;59.24;100376.41;4995299;28;115013;-71
2021/08/08 04:03:43;;;;;;;6.30;2.17;;;;;;;19.41;59.04;100374.72;4992918;28;114199;-72
2021/08/08 04:06:10;;;;;;;9.23;2.40;;;;;;;19.40;59.10;100378.38;4994861;28;123662;-71
2021/08/08 04:08:38;;;;;;;9.93;2.20;;;;;;;19.38;59.05;100385.72;4993629;28;124734;-71
2021/08/08 04:11:10;;;;;;;7.78;2.47;;;;;;;19.37;59.11;100392.09;5003096;28;114345;-71
2021/08/08 04:13:38;;;;;;;10.90;2.35;;;;;;;19.37;59.02;100395.63;4989011;28;114433;-72
2021/08/08 04:16:05;;;;;;;6.80;2.13;;;;;;;19.36;58.94;100385.00;4974403;28;123515;-71
2021/08/08 04:18:32;;;;;;;6.90;2.63;;;;;;;19.35;59.10;100392.22;4979721;28;123096;-71
2021/08/08 04:21:01;;;;;;;7.13;2.05;;;;;;;19.37;59.01;100389.41;4995554;28;113909;-71
2021/08/08 04:23:29;;;;;;;6.03;2.38;;;;;;;19.36;59.05;100398.44;5000884;28;114265;-71
2021/08/08 04:25:56;;;;;;;7.00;2.28;;;;;;;19.36;58.94;100395.75;5005965;28;124964;-71
2021/08/08 04:28:24;;;;;;;10.02;2.58;;;;;;;19.36;58.99;100398.44;4994551;28;123047;-72
2021/08/08 04:30:51;;;;;;;8.27;2.33;;;;;;;19.37;58.98;100400.16;5013001;28;114574;-72
2021/08/08 04:33:18;;;;;;;9.57;2.22;;;;;;;19.38;58.90;100385.72;4988468;28;112917;-72
2021/08/08 04:35:45;;;;;;;7.63;2.25;;;;;;;19.38;58.97;100397.34;4989997;28;123094;-71
2021/08/08 04:38:13;;;;;;;8.73;2.38;;;;;;;19.39;58.83;100409.75;4974833;28;122999;-71
2021/08/08 04:40:41;;;;;;;6.22;2.20;;;;;;;19.41;58.96;100417.69;4987192;28;112984;-72
2021/08/08 04:43:09;;;;;;;9.50;2.45;;;;;;;19.41;58.91;100412.31;4995636;28;113291;-71
2021/08/08 04:45:36;;;;;;;8.15;2.72;;;;;;;19.43;58.87;100426.47;4994573;28;123155;-71
2021/08/08 04:48:04;;;;;;;12.90;2.25;;;;;;;19.44;58.98;100428.16;4991515;28;123049;-71
2021/08/08 04:50:34;;;;;;;9.55;2.40;;;;;;;19.45;58.81;100424.47;4977106;28;114205;-71
2021/08/08 04:53:01;;;;;;;6.40;2.13;;;;;;;19.47;58.84;100417.13;4980327;28;114152;-72
2021/08/08 04:55:30;;;;;;;8.43;2.00;;;;;;;19.49;58.63;100425.06;4994638;28;123197;-71
2021/08/08 04:57:59;;;;;;;6.82;2.13;;;;;;;19.49;58.84;100425.91;4978003;28;123520;-72
2021/08/08 05:00:26;;;;;;;8.65;2.25;;;;;;;19.50;58.75;100422.25;4988529;28;113463;-71
2021/08/08 05:02:54;;;;;;;6.63;2.00;;;;;;;19.52;58.79;100430.16;4989882;28;113684;-71
2021/08/08 05:05:21;;;;;;;6.63;2.67;;;;;;;19.53;58.64;100430.00;4976853;28;123659;-71
2021/08/08 05:07:52;;;;;;;6.97;2.30;;;;;;;19.54;58.64;100434.41;4988638;28;123680;-72
2021/08/08 05:10:24;;;;;;;8.55;2.10;;;;;;;19.56;58.58;100439.66;4994170;28;112696;-72
2021/08/08 05:12:54;;;;;;;10.60;2.20;;;;;;;19.57;58.55;100441.31;4994907;28;113087;-72
2021/08/08 05:15:22;;;;;;;6.90;2.30;;;;;;;19.59;58.69;100442.91;4993195;28;123429;-71
2021/08/08 05:17:55;;;;;;;6.65;2.10;;;;;;;19.61;58.73;100443.63;4999927;22;122164;-68
2021/08/08 05:20:22;;;;;;;11.25;2.35;;;;;;;19.64;58.60;100451.38;4972645;28;113791;-69
2021/08/08 05:22:51;;;;;;;7.05;2.38;;;;;;;19.67;58.57;100460.19;4993253;28;113448;-68
2021/08/08 05:25:19;;;;;;;7.82;2.33;;;;;;;19.68;58.52;100459.19;4977877;28;123106;-69
2021/08/08 05:27:46;;;;;;;6.47;2.13;;;;;;;19.71;58.32;100461.59;4993049;28;124168;-69
2021/08/08 05:30:15;;;;;;;6.35;1.90;;;;;;;19.72;58.38;100463.28;4993117;28;113443;-69
2021/08/08 05:32:42;;;;;;;10.70;2.47;;;;;;;19.74;58.30;100477.47;4992558;28;112982;-69
2021/08/08 05:35:10;;;;;;;7.32;2.20;;;;;;;19.75;58.31;100463.06;4989120;28;123449;-68
2021/08/08 05:37:37;;;;;;;6.70;1.85;;;;;;;19.78;58.22;100473.53;4992018;28;123221;-68
2021/08/08 05:40:06;;;;;;;9.20;2.20;;;;;;;19.78;58.19;100478.91;4992221;28;114614;-68
2021/08/08 05:42:44;;;;;;;9.55;2.08;;;;;;;19.80;58.14;100482.31;4992333;28;114257;-68
2021/08/08 05:45:11;;;;;;;12.00;1.98;;;;;;;19.81;58.32;100474.09;4987990;28;123335;-68
2021/08/08 05:47:39;;;;;;;10.00;2.30;;;;;;;19.84;58.27;100472.97;4986839;28;124098;-68
2021/08/08 05:50:06;;;;;;;9.07;2.17;;;;;;;19.86;58.25;100480.91;4992573;28;113551;-68
2021/08/08 05:52:34;;;;;;;7.40;1.90;;;;;;;19.86;58.01;100476.38;4992575;28;113159;-68
2021/08/08 05:55:02;;;;;;;8.38;2.03;;;;;;;19.87;58.03;100482.59;4991021;28;123186;-68
2021/08/08 05:57:30;;;;;;;10.98;2.20;;;;;;;19.88;58.05;100479.78;4991335;28;123624;-68
2021/08/08 05:59:57;;;;;;;7.75;2.05;;;;;;;19.89;58.09;100486.84;4988178;28;114170;-69
2021/08/08 06:02:24;;;;;;;9.15;2.30;;;;;;;19.90;58.12;100483.16;4983024;28;113147;-68
2021/08/08 06:04:52;;;;;;;7.82;2.10;;;;;;;19.91;58.01;100495.63;4989923;28;123356;-68
2021/08/08 06:07:19;;;;;;;11.05;2.08;;;;;;;19.95;57.94;100502.44;4983393;28;124664;-68
2021/08/08 06:09:46;;;;;;;7.97;2.28;;;;;;;19.98;58.02;100496.75;4987956;28;113557;-68
2021/08/08 06:12:13;;;;;;;10.82;2.38;;;;;;;19.99;57.87;100503.84;4991910;28;112908;-68
2021/08/08 06:14:40;;;;;;;8.02;2.05;;;;;;;20.02;57.66;100511.66;4990158;28;124237;-70
2021/08/08 06:17:08;;;;;;;11.13;2.00;;;;;;;20.04;57.69;100506.09;4988971;28;123990;-70
2021/08/08 06:19:36;;;;;;;9.48;2.33;;;;;;;20.05;57.63;100512.34;4982702;28;115025;-70
2021/08/08 06:22:03;;;;;;;7.55;2.20;;;;;;;20.08;57.59;100518.31;4990671;28;114317;-70
2021/08/08 06:24:30;;;;;;;6.75;2.08;;;;;;;20.12;57.50;100518.88;4990900;28;123525;-70
2021/08/08 06:26:57;;;;;;;8.93;2.20;;;;;;;20.14;57.35;100530.34;4991569;28;122955;-70
2021/08/08 06:29:25;;;;;;;9.77;2.17;;;;;;;20.16;57.22;100531.06;4990711;28;114606;-70
2021/08/08 06:31:54;;;;;;;7.85;2.28;;;;;;;20.19;57.34;100536.13;4991947;28;114690;-71
2021/08/08 06:34:21;;;;;;;7.90;2.00;;;;;;;20.21;57.39;100523.41;4989654;28;123305;-70
2021/08/08 06:36:50;;;;;;;9.45;2.17;;;;;;;20.25;57.29;100546.34;4992028;28;123770;-70
2021/08/08 06:39:18;;;;;;;7.50;2.20;;;;;;;20.28;57.07;100550.59;4978327;28;114392;-70
2021/08/08 06:41:45;;;;;;;8.95;2.58;;;;;;;20.30;56.99;100552.16;4969074;28;113319;-70
2021/08/08 06:44:16;;;;;;;9.02;2.13;;;;;;;20.32;56.97;100558.22;4985859;28;123301;-70
2021/08/08 06:46:43;;;;;;;8.20;2.08;;;;;;;20.34;56.89;100564.34;4974994;28;123258;-70
2021/08/08 06:49:12;;;;;;;7.95;2.22;;;;;;;20.39;56.71;100567.44;4983328;28;113979;-70
2021/08/08 06:51:39;;;;;;;9.27;2.15;;;;;;;20.41;56.71;100565.47;4977956;28;113235;-70
2021/08/08 06:54:06;;;;;;;7.45;2.20;;;;;;;20.47;56.74;100571.28;4991527;28;124553;-70
2021/08/08 06:56:34;;;;;;;7.30;2.22;;;;;;;20.53;56.60;100570.72;4991053;28;123068;-70
2021/08/08 06:59:01;;;;;;;3.70;2.00;;;;;;;20.59;56.63;100578.25;4983085;28;113165;-70
2021/08/08 07:01:28;;;;;;;7.97;2.20;;;;;;;20.64;56.58;100584.06;4987093;28;114585;-70
2021/08/08 07:03:56;;;;;;;7.35;2.15;;;;;;;20.68;56.38;100585.50;4990316;28;123401;-71
2021/08/08 07:06:23;;;;;;;7.05;2.00;;;;;;;20.69;56.00;100595.28;4990846;28;123807;-71
2021/08/08 07:08:51;;;;;;;9.27;2.00;;;;;;;20.71;56.09;100604.06;4977756;28;114429;-70
2021/08/08 07:11:20;;;;;;;7.38;2.20;;;;;;;20.74;55.87;100598.41;4964883;28;113242;-70
2021/08/08 07:13:47;;;;;;;8.45;2.22;;;;;;;20.75;55.68;100602.78;4982749;28;124789;-70
2021/08/08 07:16:14;;;;;;;9.07;2.65;;;;;;;20.76;55.55;100601.78;4979554;28;123041;-70
2021/08/08 07:18:43;;;;;;;10.10;2.00;;;;;;;20.78;55.48;100607.88;4990767;28;114335;-70
2021/08/08 07:21:10;;;;;;;5.70;2.20;;;;;;;20.80;55.36;100608.59;4991156;28;114320;-70
2021/08/08 07:23:38;;;;;;;8.90;2.15;;;;;;;20.85;55.33;100601.94;4989994;28;122942;-70
2021/08/08 07:26:05;;;;;;;7.13;2.13;;;;;;;20.89;55.01;100608.72;4976635;28;122821;-70
2021/08/08 07:28:32;;;;;;;8.20;2.13;;;;;;;20.94;55.01;100604.63;4991051;28;113276;-70
2021/08/08 07:30:59;;;;;;;8.23;2.25;;;;;;;21.01;55.06;100623.75;4990504;28;113526;-71
2021/08/08 07:33:28;;;;;;;9.98;2.40;;;;;;;21.07;54.94;100612.41;4965954;28;124066;-71
2021/08/08 07:35:55;;;;;;;5.05;1.95;;;;;;;21.12;54.83;100615.53;4987326;28;124111;-70
2021/08/08 07:38:27;;;;;;;9.77;2.03;;;;;;;21.15;54.57;100620.63;4991493;28;113473;-70
2021/08/08 07:40:55;;;;;;;9.55;2.03;;;;;;;21.19;54.47;100616.66;4990520;28;113396;-69
2021/08/08 07:43:39;;;;;;;8.25;2.13;;;;;;;21.25;54.42;100619.75;4986225;28;122895;-70
2021/08/08 07:46:07;;;;;;;8.48;2.60;;;;;;;21.30;54.11;100628.25;4986163;28;123003;-70
2021/08/08 07:48:34;;;;;;;7.25;1.80;;;;;;;21.33;54.00;100625.28;4989498;28;114459;-70
2021/08/08 07:51:03;;;;;;;7.38;2.33;;;;;;;21.36;53.84;100627.66;4990833;28;113468;-68
2021/08/08 07:53:32;;;;;;;10.35;2.33;;;;;;;21.39;53.69;100624.69;4989652;28;123836;-68
2021/08/08 07:55:59;;;;;;;6.60;1.88;;;;;;;21.45;53.76;100626.00;4978504;28;123051;-68
2021/08/08 07:58:26;;;;;;;7.10;1.95;;;;;;;21.51;53.48;100631.66;4990628;28;113792;-68
2021/08/08 08:00:53;;;;;;;7.22;2.00;;;;;;;21.58;53.50;100632.75;4991347;28;113787;-68
2021/08/08 08:03:20;;;;;;;6.03;1.80;;;;;;;21.65;53.28;100637.59;4987619;28;122809;-68
2021/08/08 08:05:48;;;;;;;9.98;2.30;;;;;;;21.72;53.34;100639.56;4980931;28;123342;-68
2021/08/08 08:08:16;;;;;;;9.15;2.30;;;;;;;21.80;53.11;100641.50;4975705;28;114418;-68
2021/08/08 08:10:44;;;;;;;6.07;2.00;;;;;;;21.88;53.17;100655.09;4983336;28;115089;-68
2021/08/08 08:13:11;;;;;;;9.27;1.80;;;;;;;21.96;52.71;100657.91;4980978;28;124883;-68
2021/08/08 08:15:38;;;;;;;7.57;2.15;;;;;;;22.02;52.55;100658.31;4989342;28;123553;-68
2021/08/08 08:18:06;;;;;;;10.05;2.00;;;;;;;22.04;52.37;100653.59;4973748;28;114086;-68
2021/08/08 08:20:33;;;;;;;7.53;2.00;;;;;;;22.08;52.35;100655.03;4992329;28;114239;-68
2021/08/08 08:23:00;;;;;;;7.93;2.10;;;;;;;22.14;52.32;100659.81;4985043;28;123303;-68
2021/08/08 08:25:28;;;;;;;7.22;1.80;;;;;;;22.18;52.08;100661.22;4973386;28;122644;-68
2021/08/08 08:27:56;;;;;;;6.47;1.75;;;;;;;22.20;51.90;100659.22;4993572;28;113221;-68
2021/08/08 08:30:23;;;;;;;6.32;1.90;;;;;;;22.29;52.07;100662.91;4993706;28;113015;-67
2021/08/08 08:32:50;;;;;;;5.57;1.70;;;;;;;22.42;52.24;100662.56;4973416;28;123854;-69
2021/08/08 08:35:27;;;;;;;6.43;1.80;;;;;;;22.57;51.76;100671.84;4975584;28;123127;-68
2021/08/08 08:37:54;;;;;;;10.30;2.03;;;;;;;22.65;51.78;100677.34;4991020;28;114590;-68
2021/08/08 08:40:22;;;;;;;8.15;1.98;;;;;;;22.70;51.49;100677.72;4991991;28;114010;-67
2021/08/08 08:42:50;;;;;;;6.68;1.85;;;;;;;22.72;51.23;100686.53;4978352;28;124216;-68
2021/08/08 08:45:18;;;;;;;6.72;1.67;;;;;;;22.70;50.86;100683.13;4975312;28;123026;-67
2021/08/08 08:47:47;;;;;;;7.18;1.65;;;;;;;22.67;50.71;100688.81;4989234;28;113607;-68
2021/08/08 08:50:15;;;;;;;8.57;2.08;;;;;;;22.63;50.71;100687.44;4981610;28;114123;-68
2021/08/08 08:52:45;;;;;;;6.18;1.50;;;;;;;22.59;50.82;100691.44;4976970;28;123228;-67
2021/08/08 08:55:13;;;;;;;7.63;1.80;;;;;;;22.55;50.75;100696.28;4986303;28;123099;-67
2021/08/08 08:57:42;;;;;;;7.70;2.03;;;;;;;22.51;50.74;100688.66;4987050;28;114452;-67
2021/08/08 09:00:10;;;;;;;6.50;1.65;;;;;;;22.47;50.79;100698.03;4993120;28;114249;-68
2021/08/08 09:02:41;;;;;;;9.15;2.10;;;;;;;22.47;51.11;100703.44;4982075;28;123924;-68
2021/08/08 09:05:10;;;;;;;6.75;2.03;;;;;;;22.48;50.94;100697.06;4991340;28;123482;-68
2021/08/08 09:07:37;;;;;;;6.07;1.70;;;;;;;22.47;50.79;100703.44;4991256;28;113543;-68
2021/08/08 09:10:12;;;;;;;8.40;1.83;;;;;;;22.47;50.74;100708.81;4992470;28;113105;-67
2021/08/08 09:12:41;;;;;;;7.40;1.95;;;;;;;22.45;50.79;100710.84;4993001;28;123657;-68
2021/08/08 09:15:11;;;;;;;11.05;1.90;;;;;;;22.48;51.07;100710.53;4975733;28;123303;-67
2021/08/08 09:17:48;;;;;;;7.07;2.08;;;;;;;22.58;50.87;100716.72;4992768;28;113429;-67
2021/08/08 09:20:17;;;;;;;5.97;1.67;;;;;;;22.62;50.83;100707.34;4992926;28;113065;-68
2021/08/08 09:22:56;;;;;;;4.35;1.60;;;;;;;22.67;50.62;100714.97;4991961;28;123923;-68
2021/08/08 09:25:25;;;;;;;5.60;1.85;;;;;;;22.70;50.60;100720.94;4975162;28;123168;-67
2021/08/08 09:28:07;;;;;;;6.05;1.85;;;;;;;22.76;50.82;100713.25;4993259;28;113152;-68
2021/08/08 09:30:40;;;;;;;4.57;1.65;;;;;;;22.86;50.69;100722.13;4992668;28;113355;-68
2021/08/08 09:33:10;;;;;;;4.85;1.67;;;;;;;22.99;50.49;100741.50;4992321;28;123367;-68
2021/08/08 09:35:42;;;;;;;5.10;1.65;;;;;;;23.11;50.08;100734.91;4992155;28;123700;-68
2021/08/08 09:38:12;;;;;;;3.97;1.30;;;;;;;23.24;49.93;100733.66;4990927;28;114558;-67
2021/08/08 09:40:41;;;;;;;7.93;1.60;;;;;;;23.35;49.64;100741.53;4994384;28;114059;-68
2021/08/08 09:43:10;;;;;;;8.77;1.70;;;;;;;23.41;49.27;100748.19;4991228;28;124822;-68
2021/08/08 09:45:40;;;;;;;5.50;1.63;;;;;;;23.39;48.90;100748.34;4991536;28;122871;-68
2021/08/08 09:48:11;;;;;;;6.53;1.73;;;;;;;23.35;48.74;100752.34;4990100;28;115731;-67
2021/08/08 09:50:40;;;;;;;6.72;1.73;;;;;;;23.32;48.83;100758.09;4992303;28;114093;-67
2021/08/08 09:53:11;;;;;;;9.43;1.92;;;;;;;23.29;48.89;100769.19;4990482;28;124874;-67
2021/08/08 09:55:40;;;;;;;5.35;1.50;;;;;;;23.27;48.82;100760.41;4991472;28;122944;-67
2021/08/08 09:58:10;;;;;;;6.90;1.65;;;;;;;23.25;48.64;100765.09;4991800;28;114084;-67
2021/08/08 10:00:39;;;;;;;6.07;1.70;;;;;;;23.24;48.61;100768.78;4992613;28;114141;-67
2021/08/08 10:03:11;;;;;;;6.10;1.65;;;;;;;23.21;48.67;100774.53;4990316;28;123890;-68
2021/08/08 10:05:40;;;;;;;9.43;1.95;;;;;;;23.24;48.50;100782.31;4991663;28;123931;-68
2021/08/08 10:08:19;;;;;;;7.72;1.73;;;;;;;23.23;48.42;100780.63;4991386;28;114420;-68
2021/08/08 10:10:49;;;;;;;4.65;1.75;;;;;;;23.18;48.50;100777.53;4979388;28;114139;-68
2021/08/08 10:13:32;;;;;;;5.32;1.73;;;;;;;23.13;48.51;100778.84;4974820;28;123299;-68
2021/08/08 10:15:59;;;;;;;5.47;1.60;;;;;;;23.09;48.53;100788.25;4992349;28;124549;-68
2021/08/08 10:18:32;;;;;;;6.47;1.63;;;;;;;23.05;48.59;100789.53;4991394;28;114623;-68
2021/08/08 10:21:00;;;;;;;6.93;1.70;;;;;;;23.00;48.72;100791.84;4992458;28;113395;-68
2021/08/08 10:23:28;;;;;;;8.20;1.92;;;;;;;22.96;48.64;100795.81;4977732;28;124187;-68
2021/08/08 10:25:55;;;;;;;6.05;1.73;;;;;;;22.93;48.59;100796.13;4990385;28;125208;-67
2021/08/08 10:28:23;;;;;;;7.80;1.98;;;;;;;22.91;48.55;100798.13;4990788;28;114607;-67
2021/08/08 10:30:50;;;;;;;6.68;1.95;;;;;;;22.91;48.99;100803.53;4990793;28;114178;-68
2021/08/08 10:33:19;;;;;;;6.47;2.38;;;;;;;22.99;48.98;100803.63;4994077;28;98587;-68
2021/08/08 10:35:47;;;;;;;4.55;1.85;;;;;;;23.06;48.93;100796.66;4990360;28;122757;-68
2021/08/08 10:38:15;;;;;;;8.88;2.72;;;;;;;23.17;48.94;100797.44;4989392;28;115796;-68
2021/08/08 10:40:44;;;;;;;5.63;2.15;;;;;;;23.28;48.87;100789.09;4991955;28;114364;-68
2021/08/08 10:43:32;;;;;;;8.45;2.40;;;;;;;23.34;48.47;100804.72;4987157;28;124137;-67
2021/08/08 10:46:07;;;;;;;5.35;2.22;;;;;;;23.31;48.09;100800.47;4986499;28;124272;-67
2021/08/08 10:48:35;;;;;;;8.93;2.22;;;;;;;23.27;48.10;100803.63;4981264;28;114594;-67
2021/08/08 10:51:21;;;;;;;4.95;1.60;;;;;;;23.21;48.04;100804.25;4991982;28;113140;-67
2021/08/08 10:54:04;;;;;;;9.68;2.42;;;;;;;23.19;48.39;100800.81;4979660;28;124809;-68
2021/08/08 10:56:42;;;;;;;6.97;1.95;;;;;;;23.22;48.13;100805.94;4990178;28;123780;-67
2021/08/08 10:59:17;;;;;;;5.65;1.80;;;;;;;23.25;48.16;100800.22;4990198;28;114610;-67
2021/08/08 11:01:45;;;;;;;5.40;1.60;;;;;;;23.26;48.06;100812.72;4989145;28;113853;-68
2021/08/08 11:04:14;;;;;;;7.63;1.98;;;;;;;23.23;47.87;100807.66;4988853;28;123904;-67
2021/08/08 11:06:42;;;;;;;7.57;1.88;;;;;;;23.21;47.88;100815.91;4989431;28;124595;-67
2021/08/08 11:09:09;;;;;;;6.03;1.92;;;;;;;23.16;47.96;100820.06;4991484;28;114179;-68
2021/08/08 11:11:38;;;;;;;6.15;1.95;;;;;;;23.11;48.06;100824.06;4978827;28;114115;-67
2021/08/08 11:14:08;;;;;;;6.78;1.65;;;;;;;23.09;47.91;100826.09;4982755;28;124362;-67
2021/08/08 11:16:35;;;;;;;6.63;1.55;;;;;;;23.05;48.13;100827.34;4984035;28;123801;-67
2021/08/08 11:19:03;;;;;;;5.18;2.10;;;;;;;23.02;48.01;100833.03;4988320;28;114381;-67
2021/08/08 11:21:30;;;;;;;5.05;1.98;;;;;;;22.98;48.25;100828.94;4990463;28;114247;-67
2021/08/08 11:24:01;;;;;;;8.93;2.00;;;;;;;22.94;48.20;100830.22;4990174;28;123617;-68
2021/08/08 11:26:29;;;;;;;6.47;1.90;;;;;;;22.91;48.35;100825.16;4991029;28;123823;-67